createdAt,value
2019-05-20T00:00:46.118Z,2.08
2019-05-20T00:03:16.289Z,1.87
2019-05-20T00:05:46.892Z,2.00
2019-05-20T00:08:17.173Z,2.70
2019-05-20T00:10:47.595Z,3.95
2019-05-20T00:13:17.763Z,3.30
2019-05-20T00:15:48.101Z,2.87
2019-05-20T00:18:18.193Z,6.78
2019-05-20T00:20:48.383Z,2.45
2019-05-20T00:23:18.477Z,2.50
2019-05-20T00:25:48.660Z,2.20
2019-05-20T00:28:18.815Z,3.80
2019-05-20T00:30:49.093Z,2.12
2019-05-20T00:33:19.315Z,3.15
2019-05-20T00:35:49.479Z,2.33
2019-05-20T00:38:19.764Z,2.22
2019-05-20T00:40:49.947Z,2.20
2019-05-20T00:43:19.845Z,1.98
2019-05-20T00:45:49.691Z,2.30
2019-05-20T00:48:19.771Z,2.22
2019-05-20T00:50:49.931Z,2.40
2019-05-20T00:53:20.092Z,2.85
2019-05-20T00:55:50.135Z,2.12
2019-05-20T00:58:20.007Z,2.42
2019-05-20T01:00:50.261Z,2.65
2019-05-20T01:03:20.231Z,3.15
2019-05-20T01:05:50.435Z,2.92
2019-05-20T01:08:20.653Z,3.60
2019-05-20T01:10:50.752Z,2.67
2019-05-20T01:13:20.968Z,2.67
2019-05-20T01:15:50.806Z,5.92
2019-05-20T01:18:20.972Z,3.40
2019-05-20T01:20:52.319Z,3.45
2019-05-20T01:23:22.246Z,3.47
2019-05-20T01:25:53.386Z,3.50
2019-05-20T01:28:42.631Z,3.22
2019-05-20T01:31:12.797Z,3.52
2019-05-20T01:33:42.644Z,3.52
2019-05-20T01:36:19.791Z,9.08
2019-05-20T01:39:09.063Z,3.30
2019-05-20T01:41:42.803Z,5.10
2019-05-20T01:44:13.030Z,4.03
2019-05-20T01:46:43.161Z,4.00
2019-05-20T01:49:13.414Z,4.05
2019-05-20T01:51:43.516Z,3.95
2019-05-20T01:54:13.708Z,5.25
2019-05-20T01:56:43.929Z,5.03
2019-05-20T01:59:13.762Z,4.50
2019-05-20T02:01:43.869Z,4.72
2019-05-20T02:04:14.097Z,6.00
2019-05-20T02:06:44.188Z,4.92
2019-05-20T02:09:14.404Z,6.65
2019-05-20T02:11:44.547Z,5.60
2019-05-20T02:14:16.394Z,6.53
2019-05-20T02:16:46.555Z,7.27
2019-05-20T02:19:16.674Z,5.87
2019-05-20T02:21:46.790Z,5.45
2019-05-20T02:24:17.013Z,5.42
2019-05-20T02:26:47.159Z,7.67
2019-05-20T02:29:17.288Z,7.28
2019-05-20T02:31:47.106Z,9.33
2019-05-20T02:34:17.365Z,7.22
2019-05-20T02:36:47.382Z,8.58
2019-05-20T02:39:17.726Z,8.95
2019-05-20T02:41:47.781Z,8.93
2019-05-20T02:44:17.977Z,8.70
2019-05-20T02:46:47.947Z,7.35
2019-05-20T02:49:18.156Z,9.18
2019-05-20T02:51:48.271Z,8.80
2019-05-20T02:54:18.130Z,9.30
2019-05-20T02:56:48.297Z,10.53
2019-05-20T02:59:18.201Z,10.93
2019-05-20T03:01:48.042Z,12.28
2019-05-20T03:04:18.126Z,12.40
2019-05-20T03:06:48.938Z,10.90
2019-05-20T03:09:19.120Z,11.60
2019-05-20T03:11:49.292Z,13.05
2019-05-20T03:14:19.464Z,11.03
2019-05-20T03:16:49.708Z,10.90
2019-05-20T03:19:19.656Z,11.22
2019-05-20T03:21:49.803Z,12.68
2019-05-20T03:24:19.723Z,12.07
2019-05-20T03:26:49.663Z,11.18
2019-05-20T03:29:19.834Z,12.68
2019-05-20T03:31:49.757Z,10.35
2019-05-20T03:34:43.282Z,12.07
2019-05-20T03:36:51.862Z,14.03
2019-05-20T03:39:21.718Z,12.58
2019-05-20T03:41:51.658Z,14.98
2019-05-20T03:44:21.752Z,12.65
2019-05-20T03:46:51.933Z,15.30
2019-05-20T03:49:22.091Z,15.08
2019-05-20T03:51:52.643Z,17.98
2019-05-20T03:54:22.575Z,13.22
2019-05-20T03:56:52.706Z,15.00
2019-05-20T03:59:22.604Z,17.42
2019-05-20T04:01:52.790Z,13.95
2019-05-20T04:04:25.225Z,13.98
2019-05-20T04:06:54.902Z,15.10
2019-05-20T04:09:25.170Z,16.45
2019-05-20T04:11:55.238Z,15.60
2019-05-20T04:14:25.456Z,14.50
2019-05-20T04:16:55.726Z,16.60
2019-05-20T04:19:25.810Z,16.57
2019-05-20T04:21:56.040Z,15.28
2019-05-20T04:24:26.264Z,15.25
2019-05-20T04:26:59.957Z,15.98
2019-05-20T04:29:30.929Z,16.93
2019-05-20T04:32:01.135Z,16.12
2019-05-20T04:34:31.801Z,19.10
2019-05-20T04:37:01.785Z,16.73
2019-05-20T04:39:32.054Z,19.62
2019-05-20T04:42:06.311Z,16.48
2019-05-20T04:44:34.132Z,16.07
2019-05-20T04:47:04.215Z,17.45
2019-05-20T04:49:34.481Z,20.02
2019-05-20T04:52:04.761Z,16.67
2019-05-20T04:54:34.929Z,17.30
2019-05-20T04:57:05.093Z,20.72
2019-05-20T04:59:34.981Z,21.25
2019-05-20T05:02:05.039Z,19.30
2019-05-20T05:04:35.235Z,17.60
2019-05-20T05:07:05.338Z,15.05
2019-05-20T05:09:35.603Z,17.25
2019-05-20T05:12:05.821Z,15.00
2019-05-20T05:14:36.119Z,18.75
2019-05-20T05:17:06.221Z,18.37
2019-05-20T05:19:36.429Z,16.40
2019-05-20T05:22:06.701Z,16.57
2019-05-20T05:24:36.686Z,16.48
2019-05-20T05:27:06.919Z,14.68
2019-05-20T05:29:37.132Z,18.55
2019-05-20T05:32:07.368Z,13.38
2019-05-20T05:34:37.391Z,15.32
2019-05-20T05:37:07.519Z,15.58
2019-05-20T05:39:37.482Z,15.43
2019-05-20T05:42:07.659Z,16.75
2019-05-20T05:44:37.797Z,14.87
2019-05-20T05:47:07.911Z,17.23
2019-05-20T05:49:38.071Z,16.52
2019-05-20T05:52:07.911Z,16.50
2019-05-20T05:54:37.866Z,16.10
2019-05-20T05:57:08.194Z,19.20
2019-05-20T05:59:38.051Z,17.70
2019-05-20T06:02:08.973Z,15.58
2019-05-20T06:04:39.173Z,18.17
2019-05-20T06:07:09.348Z,18.40
2019-05-20T06:09:39.614Z,17.02
2019-05-20T06:12:09.573Z,16.75
2019-05-20T06:14:39.785Z,17.50
2019-05-20T06:17:10.159Z,16.55
2019-05-20T06:19:42.172Z,16.45
2019-05-20T06:22:14.491Z,17.35
2019-05-20T06:24:44.322Z,17.55
2019-05-20T06:27:14.453Z,20.55
2019-05-20T06:29:44.754Z,18.00
2019-05-20T06:32:15.285Z,15.95
2019-05-20T06:34:45.634Z,18.23
2019-05-20T06:37:17.459Z,19.30
2019-05-20T06:39:47.333Z,21.00
2019-05-20T06:42:17.553Z,19.42
2019-05-20T06:44:52.894Z,18.17
2019-05-20T06:47:19.435Z,18.00
2019-05-20T06:49:49.638Z,18.35
2019-05-20T06:52:34.941Z,19.20
2019-05-20T06:57:23.923Z,150.30
2019-05-20T06:59:54.171Z,148.53
2019-05-20T07:02:24.122Z,44.93
2019-05-20T07:04:54.393Z,41.50
2019-05-20T07:07:24.613Z,57.55
2019-05-20T07:09:54.444Z,29.65
2019-05-20T07:12:40.196Z,19.45
2019-05-20T07:14:56.357Z,30.05
2019-05-20T07:17:26.272Z,21.48
2019-05-20T07:19:56.211Z,51.88
2019-05-20T07:22:26.547Z,25.62
2019-05-20T07:24:56.851Z,23.52
2019-05-20T07:27:26.806Z,23.70
2019-05-20T07:29:57.073Z,20.80
2019-05-20T07:32:27.447Z,27.40
2019-05-20T07:34:57.383Z,22.85
2019-05-20T07:37:27.763Z,21.15
2019-05-20T07:39:58.049Z,22.50
2019-05-20T07:42:28.917Z,22.87
2019-05-20T07:44:59.085Z,22.00
2019-05-20T07:47:29.302Z,19.73
2019-05-20T07:49:59.714Z,21.95
2019-05-20T07:52:33.493Z,21.73
2019-05-20T07:55:04.334Z,22.17
2019-05-20T07:57:37.235Z,18.45
2019-05-20T08:00:08.855Z,18.73
2019-05-20T08:02:39.230Z,18.60
2019-05-20T08:05:10.526Z,20.10
2019-05-20T08:07:52.473Z,17.85
2019-05-20T08:10:19.042Z,21.07
2019-05-20T08:12:49.308Z,24.37
2019-05-20T08:15:19.604Z,20.23
2019-05-20T08:17:49.922Z,17.67
2019-05-20T08:20:20.538Z,17.92
2019-05-20T08:22:51.377Z,19.62
2019-05-20T08:25:21.688Z,19.67
2019-05-20T08:27:51.703Z,19.62
2019-05-20T08:30:33.514Z,20.82
2019-05-20T08:33:04.105Z,20.10
2019-05-20T08:35:34.322Z,17.25
2019-05-20T08:38:04.472Z,19.87
2019-05-20T08:40:35.718Z,19.60
2019-05-20T08:43:05.973Z,18.70
2019-05-20T08:45:36.222Z,18.67
2019-05-20T08:48:06.376Z,21.25
2019-05-20T08:50:36.675Z,19.62
2019-05-20T08:53:06.867Z,16.55
2019-05-20T08:55:37.271Z,17.05
2019-05-20T08:58:07.516Z,17.70
2019-05-20T09:00:37.731Z,18.20
2019-05-20T09:03:08.183Z,18.90
2019-05-20T09:05:38.187Z,18.60
2019-05-20T09:08:08.538Z,20.00
2019-05-20T09:10:39.610Z,20.82
2019-05-20T09:13:10.009Z,21.55
2019-05-20T09:15:46.391Z,17.35
2019-05-20T09:18:37.067Z,17.57
2019-05-20T09:21:07.514Z,20.35
2019-05-20T09:23:37.936Z,16.93
2019-05-20T09:26:09.345Z,17.50
2019-05-20T09:28:39.629Z,20.25
2019-05-20T09:31:10.148Z,18.87
2019-05-20T09:33:40.579Z,20.35
2019-05-20T09:36:11.016Z,21.93
2019-05-20T09:38:41.337Z,19.25
2019-05-20T09:41:11.663Z,19.73
2019-05-20T09:43:41.534Z,16.27
2019-05-20T09:46:11.742Z,17.90
2019-05-20T09:48:41.799Z,20.45
2019-05-20T09:51:12.131Z,19.02
2019-05-20T09:53:42.922Z,16.60
2019-05-20T09:56:13.195Z,19.52
2019-05-20T09:58:43.616Z,24.37
2019-05-20T10:01:13.912Z,21.80
2019-05-20T10:03:44.167Z,20.30
2019-05-20T10:06:14.158Z,20.23
2019-05-20T10:08:45.327Z,27.85
2019-05-20T10:11:15.573Z,20.05
2019-05-20T10:13:45.891Z,19.48
2019-05-20T10:16:16.099Z,25.85
2019-05-20T10:18:46.516Z,22.48
2019-05-20T10:21:16.557Z,19.92
2019-05-20T10:23:47.759Z,21.65
2019-05-20T10:26:18.057Z,21.60
2019-05-20T10:28:48.275Z,23.22
2019-05-20T10:31:19.503Z,27.30
2019-05-20T10:33:49.700Z,19.77
2019-05-20T10:36:19.916Z,17.92
2019-05-20T10:38:58.696Z,20.23
2019-05-20T10:41:22.139Z,22.00
2019-05-20T10:43:52.448Z,22.05
2019-05-20T10:46:22.375Z,25.75
2019-05-20T10:48:52.444Z,25.20
2019-05-20T10:51:22.282Z,24.55
2019-05-20T10:53:52.752Z,22.85
2019-05-20T10:56:23.052Z,25.15
2019-05-20T10:58:53.043Z,21.40
2019-05-20T11:01:23.091Z,21.15
2019-05-20T11:03:53.407Z,22.82
2019-05-20T11:06:23.494Z,23.73
2019-05-20T11:08:53.781Z,21.12
2019-05-20T11:11:24.121Z,22.48
2019-05-20T11:13:54.151Z,22.93
2019-05-20T11:16:24.354Z,25.55
2019-05-20T11:18:54.653Z,21.93
2019-05-20T11:21:24.736Z,19.42
2019-05-20T11:23:54.956Z,21.35
2019-05-20T11:26:25.174Z,22.48
2019-05-20T11:28:55.478Z,21.35
2019-05-20T11:31:25.683Z,20.60
2019-05-20T11:33:57.684Z,21.10
2019-05-20T11:36:28.059Z,22.52
2019-05-20T11:38:59.278Z,22.85
2019-05-20T11:41:52.084Z,20.77
2019-05-20T11:44:01.664Z,21.62
2019-05-20T11:46:32.019Z,21.05
2019-05-20T11:49:02.483Z,28.98
2019-05-20T11:51:32.756Z,22.95
2019-05-20T11:54:03.018Z,28.38
2019-05-20T11:56:33.317Z,25.32
2019-05-20T11:59:03.548Z,22.75
2019-05-20T12:01:34.379Z,24.40
2019-05-20T12:04:04.740Z,24.55
2019-05-20T12:06:35.055Z,30.97
2019-05-20T12:09:07.106Z,23.67
2019-05-20T12:11:37.478Z,26.30
2019-05-20T12:14:07.679Z,22.55
2019-05-20T12:16:38.115Z,24.80
2019-05-20T12:19:08.113Z,24.80
2019-05-20T12:21:38.477Z,27.10
2019-05-20T12:24:08.756Z,24.80
2019-05-20T12:26:39.120Z,26.25
2019-05-20T12:29:09.388Z,25.55
2019-05-20T12:31:39.347Z,27.37
2019-05-20T12:34:09.643Z,26.60
2019-05-20T12:36:39.895Z,27.95
2019-05-20T12:39:10.170Z,29.70
2019-05-20T12:41:40.425Z,27.75
2019-05-20T12:44:12.880Z,26.87
2019-05-20T12:46:42.471Z,26.20
2019-05-20T12:49:12.815Z,29.72
2019-05-20T12:51:43.121Z,27.50
2019-05-20T12:54:13.340Z,29.82
2019-05-20T12:56:43.523Z,32.30
2019-05-20T12:59:13.923Z,32.35
2019-05-20T13:01:43.920Z,31.65
2019-05-20T13:04:14.238Z,32.95
2019-05-20T13:06:44.787Z,26.93
2019-05-20T13:09:15.115Z,29.23
2019-05-20T13:11:47.303Z,35.85
2019-05-20T13:14:17.404Z,28.47
2019-05-20T13:16:47.265Z,42.75
2019-05-20T13:19:17.588Z,53.45
2019-05-20T13:21:47.939Z,55.50
2019-05-20T13:24:18.306Z,53.75
2019-05-20T13:26:48.690Z,50.30
2019-05-20T13:29:18.720Z,56.53
2019-05-20T13:31:48.676Z,47.85
2019-05-20T13:34:18.813Z,57.98
2019-05-20T13:36:50.099Z,55.48
2019-05-20T13:39:20.160Z,56.02
2019-05-20T13:41:50.144Z,52.90
2019-05-20T13:44:20.339Z,47.98
2019-05-20T13:46:50.666Z,59.08
2019-05-20T13:49:20.846Z,51.70
2019-05-20T13:51:50.791Z,49.90
2019-05-20T13:54:21.003Z,46.77
2019-05-20T13:56:51.004Z,46.13
2019-05-20T13:59:21.905Z,47.73
2019-05-20T14:01:51.832Z,47.70
2019-05-20T14:04:21.929Z,46.20
2019-05-20T14:06:52.253Z,39.25
2019-05-20T14:09:23.517Z,42.67
2019-05-20T14:11:53.413Z,40.65
2019-05-20T14:14:23.646Z,42.23
2019-05-20T14:16:53.617Z,37.58
2019-05-20T14:19:26.012Z,42.93
2019-05-20T14:21:56.372Z,39.13
2019-05-20T14:24:26.772Z,43.30
2019-05-20T14:26:57.086Z,41.13
2019-05-20T14:29:27.462Z,36.75
2019-05-20T14:31:57.769Z,33.33
2019-05-20T14:34:27.836Z,38.88
2019-05-20T14:37:00.162Z,37.38
2019-05-20T14:39:30.564Z,39.13
2019-05-20T14:42:00.725Z,39.05
2019-05-20T14:44:30.945Z,37.55
2019-05-20T14:47:01.032Z,39.05
2019-05-20T14:49:31.143Z,39.70
2019-05-20T14:52:01.659Z,39.27
2019-05-20T14:54:32.031Z,36.10
2019-05-20T14:57:02.282Z,35.33
2019-05-20T14:59:32.541Z,30.77
2019-05-20T15:02:02.835Z,35.88
2019-05-20T15:04:33.129Z,37.42
2019-05-20T15:07:03.407Z,35.28
2019-05-20T15:09:33.794Z,36.60
2019-05-20T15:12:04.298Z,34.65
2019-05-20T15:14:34.256Z,35.23
2019-05-20T15:17:04.709Z,31.75
2019-05-20T15:19:34.873Z,34.50
2019-05-20T15:22:05.056Z,35.43
2019-05-20T15:24:35.374Z,34.78
2019-05-20T15:27:05.645Z,35.03
2019-05-20T15:29:55.246Z,33.65
2019-05-20T15:32:41.216Z,31.87
2019-05-20T15:35:11.895Z,31.80
2019-05-20T15:37:42.304Z,25.48
2019-05-20T15:40:13.209Z,24.00
2019-05-20T15:42:43.647Z,26.02
2019-05-20T15:45:16.369Z,26.75
2019-05-20T15:47:46.984Z,25.02
2019-05-20T15:50:17.748Z,25.77
2019-05-20T15:52:48.069Z,31.23
2019-05-20T15:55:18.496Z,26.25
2019-05-20T15:57:49.736Z,25.25
2019-05-20T16:00:20.097Z,24.85
2019-05-20T16:02:50.655Z,25.15
2019-05-20T16:05:20.897Z,22.30
2019-05-20T16:07:51.155Z,23.65
2019-05-20T16:10:21.415Z,25.08
2019-05-20T16:12:51.553Z,27.60
2019-05-20T16:15:21.878Z,20.95
2019-05-20T16:17:52.101Z,23.12
2019-05-20T16:20:22.532Z,24.55
2019-05-20T16:22:52.777Z,25.80
2019-05-20T16:25:23.475Z,22.77
2019-05-20T16:27:53.559Z,25.72
2019-05-20T16:30:23.970Z,24.90
2019-05-20T16:32:54.237Z,26.50
2019-05-20T16:35:25.449Z,23.70
2019-05-20T16:37:55.431Z,29.63
2019-05-20T16:40:25.724Z,24.57
2019-05-20T16:42:55.792Z,25.17
2019-05-20T16:45:26.093Z,24.55
2019-05-20T16:47:56.345Z,21.75
2019-05-20T16:50:26.739Z,24.47
2019-05-20T16:52:57.069Z,29.12
2019-05-20T16:55:27.381Z,23.15
2019-05-20T16:57:57.767Z,30.08
2019-05-20T17:00:31.893Z,35.52
2019-05-20T17:03:00.181Z,41.18
2019-05-20T17:05:30.649Z,45.85
2019-05-20T17:08:03.724Z,39.70
2019-05-20T17:10:34.715Z,47.20
2019-05-20T17:13:05.592Z,48.42
2019-05-20T17:15:35.838Z,44.83
2019-05-20T17:18:06.195Z,49.73
2019-05-20T17:20:40.337Z,45.95
2019-05-20T17:23:10.714Z,45.70
2019-05-20T17:25:40.978Z,48.87
2019-05-20T17:28:11.332Z,47.33
2019-05-20T17:30:45.324Z,48.28
2019-05-20T17:33:13.222Z,53.00
2019-05-20T17:35:43.788Z,55.80
2019-05-20T17:38:14.385Z,52.20
2019-05-20T17:40:44.742Z,56.15
2019-05-20T17:43:15.036Z,54.23
2019-05-20T17:45:45.093Z,57.60
2019-05-20T17:48:15.519Z,59.73
2019-05-20T17:50:45.643Z,62.35
2019-05-20T17:53:17.958Z,58.80
2019-05-20T17:55:48.494Z,62.27
2019-05-20T17:58:20.700Z,59.48
2019-05-20T18:00:54.711Z,63.02
2019-05-20T18:03:25.329Z,60.70
2019-05-20T18:05:55.282Z,61.30
2019-05-20T18:08:27.223Z,66.37
2019-05-20T18:10:57.535Z,67.73
2019-05-20T18:13:27.783Z,66.62
2019-05-20T18:15:58.166Z,64.92
2019-05-20T18:18:28.486Z,64.32
2019-05-20T18:20:58.677Z,67.45
2019-05-20T18:23:28.732Z,77.35
2019-05-20T18:25:58.757Z,63.25
2019-05-20T18:28:30.570Z,78.80
2019-05-20T18:31:03.410Z,62.15
2019-05-20T18:33:34.199Z,68.95
2019-05-20T18:36:04.172Z,66.92
2019-05-20T18:38:38.288Z,71.85
2019-05-20T18:41:27.964Z,72.78
2019-05-20T18:43:58.205Z,71.22
2019-05-20T18:46:28.242Z,75.57
2019-05-20T18:48:58.567Z,74.90
2019-05-20T18:51:28.794Z,73.07
2019-05-20T18:53:59.247Z,83.85
2019-05-20T18:56:29.453Z,78.67
2019-05-20T18:58:59.764Z,68.42
2019-05-20T19:01:29.774Z,78.37
2019-05-20T19:04:00.017Z,71.35
2019-05-20T19:06:31.678Z,76.28
2019-05-20T19:09:02.289Z,72.53
2019-05-20T19:11:34.451Z,73.78
2019-05-20T19:14:08.139Z,75.08
2019-05-20T19:16:36.984Z,78.10
2019-05-20T19:19:07.393Z,73.67
2019-05-20T19:21:37.612Z,80.00
2019-05-20T19:24:07.895Z,82.82
2019-05-20T19:26:38.201Z,75.05
2019-05-20T19:29:08.729Z,84.95
2019-05-20T19:31:38.966Z,83.70
2019-05-20T19:34:09.667Z,80.47
2019-05-20T19:36:40.050Z,81.08
2019-05-20T19:39:10.126Z,80.05
2019-05-20T19:41:41.970Z,84.03
2019-05-20T19:44:13.466Z,81.67
2019-05-20T19:46:44.634Z,79.15
2019-05-20T19:49:14.796Z,78.10
2019-05-20T19:51:45.151Z,76.72
2019-05-20T19:54:15.576Z,80.70
2019-05-20T19:56:46.237Z,76.40
2019-05-20T19:59:16.669Z,84.10
2019-05-20T20:01:47.210Z,78.37
2019-05-20T20:04:17.985Z,81.75
2019-05-20T20:06:50.582Z,84.87
2019-05-20T20:09:21.236Z,81.00
2019-05-20T20:11:51.705Z,83.72
2019-05-20T20:14:21.850Z,86.08
2019-05-20T20:16:52.035Z,86.15
2019-05-20T20:19:22.087Z,86.50
2019-05-20T20:21:52.324Z,82.72
2019-05-20T20:24:22.752Z,87.30
2019-05-20T20:26:53.196Z,89.52
2019-05-20T20:29:23.170Z,81.50
2019-05-20T20:31:53.450Z,83.33
2019-05-20T20:34:23.668Z,87.97
2019-05-20T20:36:54.219Z,88.40
2019-05-20T20:39:24.508Z,79.25
2019-05-20T20:41:54.863Z,80.60
2019-05-20T20:44:25.392Z,88.78
2019-05-20T20:46:57.406Z,86.82
2019-05-20T20:49:28.411Z,80.13
2019-05-20T20:51:59.235Z,87.92
2019-05-20T20:54:29.611Z,83.37
2019-05-20T20:56:59.897Z,80.55
2019-05-20T20:59:30.406Z,80.20
2019-05-20T21:02:00.713Z,88.07
2019-05-20T21:04:31.311Z,82.88
2019-05-20T21:07:01.698Z,82.08
2019-05-20T21:09:31.980Z,79.58
2019-05-20T21:12:02.280Z,84.05
2019-05-20T21:14:32.861Z,80.80
2019-05-20T21:17:04.526Z,80.77
2019-05-20T21:19:34.938Z,85.22
2019-05-20T21:22:05.183Z,84.55
2019-05-20T21:24:35.134Z,88.58
2019-05-20T21:27:05.496Z,85.40
2019-05-20T21:29:36.538Z,79.25
2019-05-20T21:32:06.766Z,78.28
2019-05-20T21:34:42.432Z,75.92
2019-05-20T21:37:12.656Z,77.92
2019-05-20T21:39:42.580Z,78.33
2019-05-20T21:42:12.819Z,85.40
2019-05-20T21:44:49.212Z,77.78
2019-05-20T21:47:19.164Z,77.22
2019-05-20T21:49:49.177Z,79.97
2019-05-20T21:52:19.409Z,73.57
2019-05-20T21:54:49.746Z,81.97
2019-05-20T21:57:19.993Z,82.72
2019-05-20T21:59:51.104Z,75.10
2019-05-20T22:02:21.181Z,72.37
2019-05-20T22:04:51.490Z,78.40
2019-05-20T22:07:21.494Z,72.00
2019-05-20T22:09:52.426Z,70.37
2019-05-20T22:12:23.340Z,72.82
2019-05-20T22:14:53.542Z,68.70
2019-05-20T22:17:23.842Z,85.00
2019-05-20T22:19:54.016Z,79.35
2019-05-20T22:22:31.728Z,65.83
2019-05-20T22:25:01.874Z,72.20
2019-05-20T22:27:32.780Z,75.87
2019-05-20T22:30:02.716Z,72.47
2019-05-20T22:32:33.019Z,64.30
2019-05-20T22:35:04.063Z,53.45
2019-05-20T22:37:34.326Z,47.15
2019-05-20T22:40:06.311Z,48.65
2019-05-20T22:42:36.573Z,46.33
2019-05-20T22:45:06.694Z,45.55
2019-05-20T22:47:36.792Z,42.25
2019-05-20T22:50:07.840Z,37.30
2019-05-20T22:52:38.969Z,43.65
2019-05-20T22:55:09.760Z,43.63
2019-05-20T22:57:39.860Z,52.95
2019-05-20T23:00:10.243Z,47.10
2019-05-20T23:02:42.136Z,56.90
2019-05-20T23:05:12.412Z,56.50
2019-05-20T23:07:42.240Z,65.78
2019-05-20T23:10:12.679Z,70.30
2019-05-20T23:12:42.917Z,70.47
2019-05-20T23:15:12.942Z,64.60
2019-05-20T23:17:42.884Z,62.43
2019-05-20T23:20:13.136Z,63.85
2019-05-20T23:22:43.276Z,61.80
2019-05-20T23:25:13.534Z,60.50
2019-05-20T23:27:43.676Z,71.60
2019-05-20T23:30:14.014Z,71.33
2019-05-20T23:32:44.241Z,78.00
2019-05-20T23:35:14.512Z,77.58
2019-05-20T23:37:44.506Z,78.10
2019-05-20T23:40:14.789Z,81.53
2019-05-20T23:42:45.841Z,80.90
2019-05-20T23:45:16.019Z,88.90
2019-05-20T23:47:46.239Z,79.03
2019-05-20T23:50:16.490Z,77.27
2019-05-20T23:52:46.645Z,84.25
2019-05-20T23:55:16.684Z,83.55
2019-05-20T23:57:46.608Z,80.15
